Time;durP1;ratioP1;P1;durP2;ratioP2;P2;SDS_P1;SDS_P2;PMS_P1;PMS_P2;Temp;Humidity;BMP_temperature;BMP_pressure;BME280_temperature;BME280_humidity;BME280_pressure;Samples;Min_cycle;Max_cycle;Signal;HPM_P1;HPM_P2
2023/12/26 00:01:02;;;;;;;14.37;1.87;;;;;;;;;;5075880;28;20266;-70
2023/12/26 00:03:28;;;;;;;9.70;2.27;;;;;;;;;;5075252;28;20602;-71
2023/12/26 00:05:55;;;;;;;19.17;3.13;;;;;;;;;;5075252;28;20268;-70
2023/12/26 00:08:22;;;;;;;9.40;2.23;;;;;;;;;;5075250;28;20194;-71
2023/12/26 00:10:49;;;;;;;14.80;2.07;;;;;;;;;;5075406;28;20584;-71
2023/12/26 00:13:15;;;;;;;13.40;3.03;;;;;;;;;;5075731;28;20200;-71
2023/12/26 00:15:42;;;;;;;18.70;3.27;;;;;;;;;;5093385;28;20265;-71
2023/12/26 00:18:10;;;;;;;7.33;1.87;;;;;;;;;;5076668;28;20190;-71
2023/12/26 00:20:40;;;;;;;11.80;2.40;;;;;;;;;;5097404;28;20181;-70
2023/12/26 00:23:07;;;;;;;14.93;2.60;;;;;;;;;;5062427;28;20744;-71
2023/12/26 00:25:33;;;;;;;15.77;2.40;;;;;;;;;;5096759;28;20178;-70
2023/12/26 00:28:00;;;;;;;19.13;2.27;;;;;;;;;;5078868;28;20662;-71
2023/12/26 00:30:27;;;;;;;15.83;2.50;;;;;;;;;;5061765;28;20189;-70
2023/12/26 00:32:54;;;;;;;12.80;2.17;;;;;;;;;;5062747;28;20189;-71
2023/12/26 00:35:21;;;;;;;16.03;2.33;;;;;;;;;;5078718;28;20267;-70
2023/12/26 00:37:48;;;;;;;13.33;2.50;;;;;;;;;;5061919;28;20189;-70
2023/12/26 00:40:15;;;;;;;10.47;2.17;;;;;;;;;;5046010;28;20192;-70
2023/12/26 00:42:43;;;;;;;15.60;2.40;;;;;;;;;;5061840;28;20210;-70
2023/12/26 00:45:10;;;;;;;12.97;2.30;;;;;;;;;;5078644;28;20177;-70
2023/12/26 00:47:37;;;;;;;14.17;2.53;;;;;;;;;;5061682;28;20637;-70
2023/12/26 00:50:04;;;;;;;14.50;3.43;;;;;;;;;;5078501;28;20276;-70
2023/12/26 00:52:32;;;;;;;9.40;2.37;;;;;;;;;;5077886;28;20283;-70
2023/12/26 00:54:59;;;;;;;11.97;2.70;;;;;;;;;;5078414;28;20280;-70
2023/12/26 00:57:26;;;;;;;14.57;2.43;;;;;;;;;;5061427;28;20772;-70
2023/12/26 00:59:52;;;;;;;13.30;3.17;;;;;;;;;;5077888;28;20177;-70
2023/12/26 01:02:22;;;;;;;10.20;2.97;;;;;;;;;;5078085;28;20204;-70
2023/12/26 01:04:49;;;;;;;12.40;2.60;;;;;;;;;;5096007;28;20192;-70
2023/12/26 01:07:33;;;;;;;18.30;3.33;;;;;;;;;;5064346;28;20227;-70
2023/12/26 01:10:05;;;;;;;16.43;4.03;;;;;;;;;;5077830;28;20571;-70
2023/12/26 01:51:42;;;;;;;20.30;3.07;;;;;;;;;;5095197;28;20767;-70
2023/12/26 01:54:09;;;;;;;17.70;2.60;;;;;;;;;;5060536;28;20247;-70
2023/12/26 01:56:36;;;;;;;15.73;2.50;;;;;;;;;;5095321;28;20419;-70
2023/12/26 01:59:03;;;;;;;13.10;2.70;;;;;;;;;;5077040;28;20435;-70
2023/12/26 02:01:30;;;;;;;7.50;2.00;;;;;;;;;;5060616;28;20182;-70
2023/12/26 02:04:00;;;;;;;19.73;3.17;;;;;;;;;;5076553;28;20255;-70
2023/12/26 02:06:27;;;;;;;13.70;2.33;;;;;;;;;;5077290;28;20427;-70
2023/12/26 02:08:54;;;;;;;14.90;2.30;;;;;;;;;;5060443;28;20485;-70
2023/12/26 02:11:21;;;;;;;12.30;2.27;;;;;;;;;;5076968;28;20189;-70
2023/12/26 02:13:47;;;;;;;19.43;3.00;;;;;;;;;;5060061;28;20431;-70
2023/12/26 02:16:18;;;;;;;13.17;2.63;;;;;;;;;;5060246;28;20189;-70
2023/12/26 02:19:03;;;;;;;17.03;2.30;;;;;;;;;;5079825;28;20165;-70
2023/12/26 02:21:30;;;;;;;8.93;1.90;;;;;;;;;;5060638;28;20285;-70
2023/12/26 02:23:57;;;;;;;14.00;2.40;;;;;;;;;;5076238;28;20958;-70
2023/12/26 02:26:24;;;;;;;15.93;2.07;;;;;;;;;;5094197;28;20910;-70
2023/12/26 02:28:51;;;;;;;17.27;2.60;;;;;;;;;;5060036;28;20282;-70
2023/12/26 02:31:18;;;;;;;17.03;2.33;;;;;;;;;;5059710;28;20430;-70
2023/12/26 02:33:47;;;;;;;18.13;2.13;;;;;;;;;;5060165;28;20208;-70
2023/12/26 02:36:14;;;;;;;13.00;2.80;;;;;;;;;;5060132;28;20225;-70
2023/12/26 02:38:41;;;;;;;12.80;2.10;;;;;;;;;;5059625;28;20489;-70
2023/12/26 02:45:09;;;;;;;11.87;2.90;;;;;;;;;;5094070;28;20186;-70
2023/12/26 02:47:35;;;;;;;15.97;2.00;;;;;;;;;;5075914;28;20839;-70
2023/12/26 02:50:02;;;;;;;15.23;2.83;;;;;;;;;;5059417;28;20194;-70
2023/12/26 02:52:29;;;;;;;10.60;2.07;;;;;;;;;;5059230;28;20686;-70
2023/12/26 02:54:56;;;;;;;14.53;2.53;;;;;;;;;;5059334;28;20438;-70
2023/12/26 02:57:40;;;;;;;14.70;2.80;;;;;;;;;;5077789;28;20547;-70
2023/12/26 03:00:07;;;;;;;14.53;2.20;;;;;;;;;;5076046;28;20430;-70
2023/12/26 03:02:34;;;;;;;14.70;2.37;;;;;;;;;;5076141;28;20228;-70
2023/12/26 03:05:01;;;;;;;13.10;2.17;;;;;;;;;;5093979;28;20446;-70
2023/12/26 03:07:28;;;;;;;13.90;2.10;;;;;;;;;;5075687;28;20435;-70
2023/12/26 03:10:12;;;;;;;12.70;2.07;;;;;;;;;;5061651;28;20411;-70
2023/12/26 03:12:39;;;;;;;16.10;2.10;;;;;;;;;;5075908;28;20185;-70
2023/12/26 03:15:06;;;;;;;15.13;2.60;;;;;;;;;;5042209;28;20443;-70
2023/12/26 03:17:32;;;;;;;12.87;2.27;;;;;;;;;;5076293;28;20181;-70
2023/12/26 03:19:59;;;;;;;10.10;2.60;;;;;;;;;;5094642;28;20435;-70
2023/12/26 03:22:44;;;;;;;17.87;3.40;;;;;;;;;;5061446;28;20230;-70
2023/12/26 03:25:11;;;;;;;16.53;2.50;;;;;;;;;;5075823;28;20854;-70
2023/12/26 03:27:39;;;;;;;17.80;2.97;;;;;;;;;;5093688;28;20189;-70
2023/12/26 03:30:07;;;;;;;14.40;3.33;;;;;;;;;;5059397;28;20435;-70
2023/12/26 03:32:34;;;;;;;12.17;2.63;;;;;;;;;;5075456;28;20492;-70
2023/12/26 03:35:18;;;;;;;16.30;2.43;;;;;;;;;;5078967;28;20591;-70
2023/12/26 03:37:45;;;;;;;15.37;2.20;;;;;;;;;;5059003;28;20419;-70
2023/12/26 03:40:29;;;;;;;14.57;2.20;;;;;;;;;;5078706;28;20233;-70
2023/12/26 03:42:56;;;;;;;11.60;2.13;;;;;;;;;;5093261;28;20204;-70
2023/12/26 03:45:41;;;;;;;12.70;2.70;;;;;;;;;;5061363;28;20914;-70
2023/12/26 03:48:08;;;;;;;15.97;2.40;;;;;;;;;;5075930;28;20187;-70
2023/12/26 03:50:35;;;;;;;15.30;2.50;;;;;;;;;;5059247;28;20411;-70
2023/12/26 03:53:01;;;;;;;12.37;2.57;;;;;;;;;;5076865;28;20455;-70
2023/12/26 03:55:28;;;;;;;11.00;2.10;;;;;;;;;;5079505;28;20760;-70
2023/12/26 03:57:55;;;;;;;7.30;1.80;;;;;;;;;;5097024;28;20239;-70
2023/12/26 04:00:22;;;;;;;12.30;2.00;;;;;;;;;;5078987;28;20820;-70
2023/12/26 04:02:49;;;;;;;11.97;2.10;;;;;;;;;;5062490;28;20210;-70
2023/12/26 04:05:16;;;;;;;8.10;1.63;;;;;;;;;;5062514;28;20446;-70
2023/12/26 04:07:42;;;;;;;11.73;2.40;;;;;;;;;;5062418;28;20200;-70
2023/12/26 04:10:09;;;;;;;12.80;2.50;;;;;;;;;;5079159;28;20428;-70
2023/12/26 04:12:36;;;;;;;15.53;2.73;;;;;;;;;;5079170;28;20588;-70
2023/12/26 04:15:03;;;;;;;15.63;2.57;;;;;;;;;;5079187;28;20424;-70
2023/12/26 04:17:30;;;;;;;15.37;2.77;;;;;;;;;;5062170;28;20513;-70
2023/12/26 04:19:56;;;;;;;15.67;2.57;;;;;;;;;;5078750;28;20189;-70
2023/12/26 04:22:24;;;;;;;11.60;2.87;;;;;;;;;;5077940;28;20559;-70
2023/12/26 04:24:50;;;;;;;13.00;2.50;;;;;;;;;;5078527;28;20213;-70
2023/12/26 04:27:17;;;;;;;13.40;3.07;;;;;;;;;;5078612;28;20187;-70
2023/12/26 04:29:44;;;;;;;13.97;2.90;;;;;;;;;;5078556;28;20544;-70
2023/12/26 04:32:12;;;;;;;13.67;2.70;;;;;;;;;;5096942;28;20415;-70
2023/12/26 04:34:38;;;;;;;13.67;2.87;;;;;;;;;;5095385;28;20523;-70
2023/12/26 04:37:05;;;;;;;13.37;2.63;;;;;;;;;;5062594;28;20522;-70
2023/12/26 04:39:32;;;;;;;14.43;2.40;;;;;;;;;;5061814;28;20431;-70
2023/12/26 04:42:00;;;;;;;17.37;2.77;;;;;;;;;;5045705;28;20189;-70
2023/12/26 04:44:26;;;;;;;17.87;2.93;;;;;;;;;;5078498;28;20483;-70
2023/12/26 04:46:53;;;;;;;13.33;2.50;;;;;;;;;;5061670;28;20194;-71
2023/12/26 04:49:37;;;;;;;16.27;3.30;;;;;;;;;;5078413;28;20431;-71
2023/12/26 04:52:04;;;;;;;11.43;2.00;;;;;;;;;;5061448;28;20501;-70
2023/12/26 04:54:49;;;;;;;12.60;2.30;;;;;;;;;;5064754;28;20165;-70
2023/12/26 04:57:16;;;;;;;13.03;2.10;;;;;;;;;;5078295;28;20465;-70
2023/12/26 04:59:44;;;;;;;7.93;2.20;;;;;;;;;;5045232;28;20938;-70
2023/12/26 05:02:12;;;;;;;11.43;1.90;;;;;;;;;;5079066;28;20439;-70
2023/12/26 05:04:39;;;;;;;12.90;2.30;;;;;;;;;;5095656;28;20493;-71
2023/12/26 05:07:08;;;;;;;13.50;2.43;;;;;;;;;;5061364;28;20423;-71
2023/12/26 05:09:35;;;;;;;12.40;2.40;;;;;;;;;;5061453;28;20518;-71
2023/12/26 05:12:02;;;;;;;13.17;2.13;;;;;;;;;;5077650;28;20435;-71
2023/12/26 05:14:29;;;;;;;12.73;2.43;;;;;;;;;;5078016;28;20431;-71
2023/12/26 05:16:55;;;;;;;10.77;2.50;;;;;;;;;;5078296;28;20439;-71
2023/12/26 05:19:22;;;;;;;13.67;2.30;;;;;;;;;;5096027;28;20925;-71
2023/12/26 05:22:07;;;;;;;11.13;2.27;;;;;;;;;;5079838;28;20435;-70
2023/12/26 05:24:34;;;;;;;16.23;2.33;;;;;;;;;;5061155;28;20558;-71
2023/12/26 05:27:17;;;;;;;14.33;2.73;;;;;;;;;;5077825;28;20432;-71
2023/12/26 05:29:44;;;;;;;13.47;2.67;;;;;;;;;;5077672;28;20189;-70
2023/12/26 05:32:11;;;;;;;15.83;2.87;;;;;;;;;;5061262;28;20470;-71
2023/12/26 05:34:38;;;;;;;14.27;2.90;;;;;;;;;;5060724;28;20435;-69
2023/12/26 05:37:04;;;;;;;10.47;2.10;;;;;;;;;;5077223;28;20272;-69
2023/12/26 05:39:32;;;;;;;12.90;2.70;;;;;;;;;;5077408;28;20438;-69
2023/12/26 05:41:59;;;;;;;16.60;2.63;;;;;;;;;;5061174;28;20424;-69
2023/12/26 05:44:26;;;;;;;15.50;2.33;;;;;;;;;;5060684;28;21008;-69
2023/12/26 05:46:53;;;;;;;9.47;2.47;;;;;;;;;;5077097;28;20427;-69
2023/12/26 05:49:20;;;;;;;12.73;2.80;;;;;;;;;;5076844;28;20915;-69
2023/12/26 05:51:47;;;;;;;14.87;2.83;;;;;;;;;;5060182;28;20459;-69
2023/12/26 05:54:14;;;;;;;13.73;2.67;;;;;;;;;;5076773;28;20813;-69
2023/12/26 05:56:44;;;;;;;10.20;2.40;;;;;;;;;;5060170;28;20435;-69
2023/12/26 05:59:11;;;;;;;13.60;2.60;;;;;;;;;;5060356;28;20891;-69
2023/12/26 06:01:37;;;;;;;14.97;2.47;;;;;;;;;;5076488;28;20437;-69
2023/12/26 06:04:05;;;;;;;12.07;2.33;;;;;;;;;;5075963;28;20465;-69
2023/12/26 06:06:32;;;;;;;13.20;2.30;;;;;;;;;;5093200;28;20531;-69
2023/12/26 06:09:16;;;;;;;10.83;2.70;;;;;;;;;;5079321;28;20157;-69
2023/12/26 06:11:43;;;;;;;9.60;2.33;;;;;;;;;;5060155;28;20898;-69
2023/12/26 06:14:29;;;;;;;10.70;1.90;;;;;;;;;;5062605;28;20427;-70
2023/12/26 06:16:55;;;;;;;9.10;2.07;;;;;;;;;;5059668;28;20554;-69
2023/12/26 06:19:22;;;;;;;9.47;2.30;;;;;;;;;;5059849;28;20752;-70
2023/12/26 06:21:49;;;;;;;11.03;2.43;;;;;;;;;;5060030;28;20452;-70
2023/12/26 06:24:16;;;;;;;12.53;2.73;;;;;;;;;;5076208;28;20459;-70
2023/12/26 06:26:43;;;;;;;9.70;2.23;;;;;;;;;;5059822;28;20191;-69
2023/12/26 06:29:10;;;;;;;7.30;2.20;;;;;;;;;;5076801;28;20906;-69
2023/12/26 06:31:37;;;;;;;10.97;2.27;;;;;;;;;;5043992;28;20903;-69
2023/12/26 06:34:04;;;;;;;10.00;2.20;;;;;;;;;;5076358;28;20431;-69
2023/12/26 06:36:32;;;;;;;9.43;2.13;;;;;;;;;;5093098;28;20453;-70
2023/12/26 06:39:18;;;;;;;9.13;2.13;;;;;;;;;;5078980;28;20553;-69
2023/12/26 06:41:45;;;;;;;7.90;2.20;;;;;;;;;;5059767;28;20493;-69
2023/12/26 06:44:12;;;;;;;9.77;2.50;;;;;;;;;;5093578;28;20467;-70
2023/12/26 06:46:42;;;;;;;8.10;2.47;;;;;;;;;;5073745;28;20530;-69
2023/12/26 06:49:10;;;;;;;6.73;2.00;;;;;;;;;;5059430;28;20948;-74
2023/12/26 06:51:39;;;;;;;10.40;2.20;;;;;;;;;;5076402;28;20467;-73
2023/12/26 06:54:08;;;;;;;5.63;1.83;;;;;;;;;;5060006;28;20530;-71
2023/12/26 06:56:35;;;;;;;4.83;1.70;;;;;;;;;;5060472;28;20519;-75
2023/12/26 06:59:02;;;;;;;5.83;1.60;;;;;;;;;;5094367;28;20423;-73
2023/12/26 07:01:28;;;;;;;4.50;1.50;;;;;;;;;;5077049;28;20514;-73
2023/12/26 07:03:55;;;;;;;5.23;1.80;;;;;;;;;;5093507;28;20463;-73
2023/12/26 07:06:23;;;;;;;3.90;1.87;;;;;;;;;;5093391;28;20427;-73
2023/12/26 07:08:50;;;;;;;5.70;2.17;;;;;;;;;;5094384;28;20522;-73
2023/12/26 07:11:17;;;;;;;1.97;1.30;;;;;;;;;;5076379;28;20412;-73
2023/12/26 07:13:44;;;;;;;4.20;2.20;;;;;;;;;;5093607;28;20443;-73
2023/12/26 07:16:10;;;;;;;4.47;2.40;;;;;;;;;;5060243;28;20435;-72
2023/12/26 07:18:38;;;;;;;6.37;2.67;;;;;;;;;;5094284;28;20188;-69
2023/12/26 07:21:05;;;;;;;4.97;2.50;;;;;;;;;;5094421;28;20431;-72
2023/12/26 07:23:32;;;;;;;6.03;2.63;;;;;;;;;;5094340;28;20252;-71
2023/12/26 07:25:59;;;;;;;5.33;3.00;;;;;;;;;;5094773;28;20574;-74
2023/12/26 07:28:25;;;;;;;6.57;2.80;;;;;;;;;;5098018;28;20914;-76
2023/12/26 07:30:52;;;;;;;5.60;3.00;;;;;;;;;;5099284;28;20182;-74
2023/12/26 07:33:19;;;;;;;5.93;3.43;;;;;;;;;;5099389;28;20513;-73
2023/12/26 07:35:46;;;;;;;5.37;3.47;;;;;;;;;;5097017;28;20469;-76
2023/12/26 07:38:13;;;;;;;7.53;4.03;;;;;;;;;;5081883;28;20431;-74
2023/12/26 07:40:40;;;;;;;6.07;3.70;;;;;;;;;;5064890;28;20469;-75
2023/12/26 07:43:10;;;;;;;5.83;2.83;;;;;;;;;;5099523;28;20181;-75
2023/12/26 07:45:37;;;;;;;5.87;3.57;;;;;;;;;;5080457;28;20181;-74
2023/12/26 07:48:05;;;;;;;8.03;3.80;;;;;;;;;;5098305;28;20270;-73
2023/12/26 07:50:37;;;;;;;5.10;3.83;;;;;;;;;;5047446;28;20524;-74
2023/12/26 07:53:10;;;;;;;6.97;3.20;;;;;;;;;;5077629;28;20508;-73
2023/12/26 07:55:37;;;;;;;6.93;4.30;;;;;;;;;;5077339;28;20186;-74
2023/12/26 07:58:05;;;;;;;7.23;3.77;;;;;;;;;;5077086;28;20267;-72
2023/12/26 08:00:31;;;;;;;6.23;4.03;;;;;;;;;;5059559;28;20190;-72
2023/12/26 08:06:58;;;;;;;6.97;2.97;;;;;;;;;;5067534;28;20660;-70
2023/12/26 08:09:25;;;;;;;5.43;3.00;;;;;;;;;;5067744;28;20537;-70
2023/12/26 08:11:52;;;;;;;5.43;3.60;;;;;;;;;;5065782;28;20248;-71
2023/12/26 08:14:19;;;;;;;4.53;2.77;;;;;;;;;;5048984;28;20549;-71
2023/12/26 08:16:46;;;;;;;2.37;1.77;;;;;;;;;;5067289;28;20193;-72
2023/12/26 08:19:13;;;;;;;5.43;2.70;;;;;;;;;;5066846;28;20193;-73
2023/12/26 08:21:44;;;;;;;5.40;3.50;;;;;;;;;;5066765;28;21044;-72
2023/12/26 08:24:12;;;;;;;3.17;2.23;;;;;;;;;;5067001;28;20218;-72
2023/12/26 08:26:41;;;;;;;4.90;2.27;;;;;;;;;;5049587;28;20190;-72
2023/12/26 08:29:09;;;;;;;4.17;2.67;;;;;;;;;;5067650;28;20277;-75
2023/12/26 08:31:36;;;;;;;5.60;2.60;;;;;;;;;;5073448;28;20289;-73
2023/12/26 08:34:04;;;;;;;2.13;1.80;;;;;;;;;;5075454;28;20333;-73
2023/12/26 08:36:32;;;;;;;1.37;1.27;;;;;;;;;;5075364;28;20187;-73
2023/12/26 08:38:59;;;;;;;3.73;2.40;;;;;;;;;;5075409;28;20269;-74
2023/12/26 08:41:26;;;;;;;2.67;2.27;;;;;;;;;;5075004;28;20704;-73
2023/12/26 08:43:54;;;;;;;2.43;1.47;;;;;;;;;;5076721;28;20280;-73
2023/12/26 08:46:22;;;;;;;2.43;1.57;;;;;;;;;;5058503;28;20185;-73
2023/12/26 08:48:49;;;;;;;3.83;2.63;;;;;;;;;;5058555;28;20610;-73
2023/12/26 08:51:16;;;;;;;4.50;2.50;;;;;;;;;;5058624;28;20348;-73
2023/12/26 08:53:45;;;;;;;5.17;2.80;;;;;;;;;;5067247;28;20167;-72
2023/12/26 08:56:16;;;;;;;3.73;2.60;;;;;;;;;;5058912;28;20594;-72
2023/12/26 08:58:43;;;;;;;3.47;2.53;;;;;;;;;;5068386;28;20213;-72
2023/12/26 09:01:10;;;;;;;3.10;2.50;;;;;;;;;;5058620;28;20634;-72
2023/12/26 09:03:38;;;;;;;2.43;2.00;;;;;;;;;;5075995;28;20178;-73
2023/12/26 09:06:05;;;;;;;3.10;2.27;;;;;;;;;;5075598;28;20182;-72
2023/12/26 09:08:32;;;;;;;2.30;2.03;;;;;;;;;;5074536;28;20186;-73
2023/12/26 09:10:58;;;;;;;5.73;3.13;;;;;;;;;;5057691;28;20228;-72
2023/12/26 09:13:26;;;;;;;6.23;3.33;;;;;;;;;;5074178;28;20178;-73
2023/12/26 09:15:53;;;;;;;6.83;3.33;;;;;;;;;;5041550;28;20186;-73
2023/12/26 09:18:37;;;;;;;6.17;3.73;;;;;;;;;;5060780;28;20162;-73
2023/12/26 09:21:04;;;;;;;7.97;4.17;;;;;;;;;;5075603;28;20189;-73
2023/12/26 09:23:48;;;;;;;6.33;3.93;;;;;;;;;;5043725;28;20253;-73
2023/12/26 09:26:20;;;;;;;4.70;2.73;;;;;;;;;;5040891;28;20526;-73
2023/12/26 09:28:47;;;;;;;4.73;2.80;;;;;;;;;;5057288;28;20582;-72
2023/12/26 09:31:13;;;;;;;5.37;2.87;;;;;;;;;;5061274;28;20271;-73
2023/12/26 09:33:40;;;;;;;4.47;1.90;;;;;;;;;;5040888;28;20217;-74
2023/12/26 09:36:08;;;;;;;2.33;1.03;;;;;;;;;;5090345;28;20537;-73
2023/12/26 09:38:35;;;;;;;3.57;1.73;;;;;;;;;;5075079;28;20205;-73
2023/12/26 09:41:02;;;;;;;2.00;1.60;;;;;;;;;;5075085;28;20220;-74
2023/12/26 09:43:30;;;;;;;2.77;1.90;;;;;;;;;;5074252;28;20186;-73
2023/12/26 09:45:57;;;;;;;4.87;2.40;;;;;;;;;;5072659;28;20198;-74
2023/12/26 09:48:24;;;;;;;4.10;2.10;;;;;;;;;;5057287;28;20178;-73
2023/12/26 09:50:53;;;;;;;4.37;2.17;;;;;;;;;;5055969;28;20511;-72
2023/12/26 09:53:20;;;;;;;4.23;1.07;;;;;;;;;;5074664;28;20249;-73
2023/12/26 09:55:47;;;;;;;5.67;2.10;;;;;;;;;;5040613;28;20688;-72
2023/12/26 09:58:14;;;;;;;6.03;2.10;;;;;;;;;;5057088;28;20178;-72
2023/12/26 10:00:41;;;;;;;7.80;2.37;;;;;;;;;;5056822;28;20186;-74
2023/12/26 10:03:08;;;;;;;7.73;1.93;;;;;;;;;;5040416;28;20193;-73
2023/12/26 10:05:35;;;;;;;4.83;1.60;;;;;;;;;;5056866;28;20198;-72
2023/12/26 10:08:03;;;;;;;3.40;1.90;;;;;;;;;;5040335;28;20194;-73
2023/12/26 10:10:30;;;;;;;4.57;1.57;;;;;;;;;;5056699;28;20193;-73
2023/12/26 10:12:57;;;;;;;3.43;1.00;;;;;;;;;;5056615;28;20194;-72
2023/12/26 10:15:24;;;;;;;3.50;1.33;;;;;;;;;;5041185;28;20190;-73
2023/12/26 10:17:51;;;;;;;7.57;2.17;;;;;;;;;;5056668;28;20529;-73
2023/12/26 10:20:18;;;;;;;5.10;1.33;;;;;;;;;;5074463;28;20178;-72
2023/12/26 10:22:52;;;;;;;6.30;1.50;;;;;;;;;;5071439;28;20625;-73
2023/12/26 10:25:19;;;;;;;5.93;1.53;;;;;;;;;;5053500;28;20190;-73
2023/12/26 10:27:53;;;;;;;4.03;1.20;;;;;;;;;;5053289;28;20190;-73
2023/12/26 10:30:24;;;;;;;4.00;1.27;;;;;;;;;;5067241;28;20502;-73
2023/12/26 10:33:03;;;;;;;4.20;1.40;;;;;;;;;;5033304;28;20179;-73
2023/12/26 10:35:31;;;;;;;5.17;1.20;;;;;;;;;;5049815;28;20649;-72
2023/12/26 10:37:58;;;;;;;5.53;1.67;;;;;;;;;;5050676;28;20526;-73
2023/12/26 10:40:25;;;;;;;4.90;1.47;;;;;;;;;;5050605;28;20182;-73
2023/12/26 10:43:09;;;;;;;4.67;1.50;;;;;;;;;;5035636;28;20179;-73
2023/12/26 10:45:35;;;;;;;2.17;0.70;;;;;;;;;;5050599;28;20585;-72
2023/12/26 10:48:02;;;;;;;7.50;1.80;;;;;;;;;;5033318;28;20183;-72
2023/12/26 10:50:29;;;;;;;2.77;0.70;;;;;;;;;;5032812;28;20194;-73
2023/12/26 10:53:07;;;;;;;1.90;0.90;;;;;;;;;;5049603;28;20190;-73
2023/12/26 10:55:34;;;;;;;3.47;1.03;;;;;;;;;;5049215;28;20182;-72
2023/12/26 10:58:20;;;;;;;3.87;1.07;;;;;;;;;;5033101;28;20705;-74
2023/12/26 11:01:13;;;;;;;3.93;1.20;;;;;;;;;;5049822;28;20175;-73
2023/12/26 13:53:07;;;;;;;2.43;1.10;;;;;;;;;;5074474;28;20235;-73
2023/12/26 13:55:52;;;;;;;3.23;1.10;;;;;;;;;;5072634;28;20190;-72
2023/12/26 14:02:31;;;;;;;4.57;1.50;;;;;;;;;;5053479;28;20699;-73
2023/12/26 14:04:59;;;;;;;3.97;1.20;;;;;;;;;;5053362;28;20213;-73
2023/12/26 14:07:46;;;;;;;2.70;1.20;;;;;;;;;;5052639;28;20668;-73
2023/12/26 14:14:25;;;;;;;4.03;1.33;;;;;;;;;;5053638;28;20165;-72
2023/12/26 14:17:20;;;;;;;3.17;0.70;;;;;;;;;;5067819;28;20637;-72
2023/12/26 14:20:00;;;;;;;3.07;0.77;;;;;;;;;;5072577;28;20656;-73
2023/12/26 14:26:52;;;;;;;2.07;0.70;;;;;;;;;;5069562;28;20267;-73
2023/12/26 14:29:21;;;;;;;3.07;0.60;;;;;;;;;;5073443;28;20194;-72
2023/12/26 14:31:48;;;;;;;3.07;1.50;;;;;;;;;;5056192;28;20239;-73
2023/12/26 14:34:15;;;;;;;2.97;1.10;;;;;;;;;;5071503;28;20243;-73
2023/12/26 14:37:07;;;;;;;1.50;0.40;;;;;;;;;;5055470;28;20245;-71
2023/12/26 14:39:53;;;;;;;1.33;0.70;;;;;;;;;;5054806;28;20189;-72
2023/12/26 14:42:21;;;;;;;3.70;1.40;;;;;;;;;;5065128;28;20736;-74
2023/12/26 14:44:48;;;;;;;1.43;0.80;;;;;;;;;;5055475;28;20292;-71
2023/12/26 14:51:24;;;;;;;2.27;1.20;;;;;;;;;;5073520;28;20157;-75
2023/12/26 14:53:51;;;;;;;2.80;0.90;;;;;;;;;;5072321;28;20248;-73
2023/12/26 14:56:37;;;;;;;3.03;1.23;;;;;;;;;;5072455;28;20185;-74
2023/12/26 14:59:22;;;;;;;4.83;1.60;;;;;;;;;;5055265;28;20190;-74
2023/12/26 15:01:49;;;;;;;2.63;1.30;;;;;;;;;;5072808;28;20198;-72
2023/12/26 15:04:17;;;;;;;2.17;1.00;;;;;;;;;;5056500;28;20245;-72
2023/12/26 15:06:44;;;;;;;2.77;1.10;;;;;;;;;;5073334;28;20274;-72
2023/12/26 15:09:12;;;;;;;1.30;1.10;;;;;;;;;;5075531;28;20189;-73
2023/12/26 15:14:51;;;;;;;5.30;1.53;;;;;;;;;;5075727;28;20289;-71
2023/12/26 15:17:54;;;;;;;2.60;1.30;;;;;;;;;;5076354;28;20563;-73
2023/12/26 15:20:54;;;;;;;1.07;0.50;;;;;;;;;;5076685;28;20253;-72
2023/12/26 15:23:21;;;;;;;2.27;1.00;;;;;;;;;;5075752;28;20741;-74
2023/12/26 15:25:48;;;;;;;1.77;0.97;;;;;;;;;;5076693;28;20684;-74
2023/12/26 15:28:15;;;;;;;2.80;0.97;;;;;;;;;;5059074;28;20217;-72
2023/12/26 15:30:42;;;;;;;2.93;0.93;;;;;;;;;;5075341;28;20576;-73
2023/12/26 15:41:14;;;;;;;2.53;1.30;;;;;;;;;;5075912;28;20173;-73
2023/12/26 15:43:41;;;;;;;3.73;1.43;;;;;;;;;;5076450;28;20209;-73
2023/12/26 15:46:17;;;;;;;3.03;1.40;;;;;;;;;;5075527;28;20182;-73
2023/12/26 15:48:44;;;;;;;3.33;1.20;;;;;;;;;;5073907;28;20190;-73
2023/12/26 15:51:13;;;;;;;3.43;1.20;;;;;;;;;;5057681;28;20506;-72
2023/12/26 16:01:22;;;;;;;2.03;1.00;;;;;;;;;;5055912;28;20221;-73
2023/12/26 16:03:50;;;;;;;1.87;1.10;;;;;;;;;;5038647;28;20665;-73
2023/12/26 16:06:18;;;;;;;4.07;1.33;;;;;;;;;;5056554;28;20190;-73
2023/12/26 16:23:20;;;;;;;3.27;0.90;;;;;;;;;;5071468;28;20554;-71
2023/12/26 16:25:47;;;;;;;2.77;1.03;;;;;;;;;;5043308;28;20261;-72
2023/12/26 16:28:15;;;;;;;3.07;1.17;;;;;;;;;;5057134;28;20903;-72
2023/12/26 16:30:41;;;;;;;2.07;0.93;;;;;;;;;;5044985;28;20187;-72
2023/12/26 16:37:02;;;;;;;3.70;1.43;;;;;;;;;;5066393;28;20659;-72
2023/12/26 16:39:29;;;;;;;3.00;1.27;;;;;;;;;;5064750;28;20186;-72
2023/12/26 16:42:00;;;;;;;3.33;1.27;;;;;;;;;;5064675;28;20267;-74
2023/12/26 16:44:27;;;;;;;2.60;1.23;;;;;;;;;;5065722;28;20190;-72
2023/12/26 16:50:47;;;;;;;5.33;1.47;;;;;;;;;;5066416;28;20647;-76
2023/12/26 16:57:13;;;;;;;3.13;1.13;;;;;;;;;;5066464;28;20261;-74
2023/12/26 16:59:40;;;;;;;2.27;1.00;;;;;;;;;;5031388;28;20285;-73
2023/12/26 17:02:07;;;;;;;3.13;1.67;;;;;;;;;;5064530;28;20214;-75
2023/12/26 17:04:34;;;;;;;5.73;1.70;;;;;;;;;;5059960;28;20648;-74
2023/12/26 17:07:02;;;;;;;3.70;1.40;;;;;;;;;;5064792;28;20197;-77
2023/12/26 17:09:29;;;;;;;2.23;1.50;;;;;;;;;;5064654;28;20825;-71
2023/12/26 17:11:56;;;;;;;2.73;1.60;;;;;;;;;;5063780;28;20190;-72
2023/12/26 17:14:24;;;;;;;3.63;1.70;;;;;;;;;;5065548;28;20204;-72
2023/12/26 17:16:50;;;;;;;4.23;1.50;;;;;;;;;;5065362;28;20728;-75
2023/12/26 17:19:17;;;;;;;4.00;1.83;;;;;;;;;;5063954;28;20279;-74
2023/12/26 17:22:00;;;;;;;2.97;1.77;;;;;;;;;;5055873;28;20511;-73
2023/12/26 17:24:27;;;;;;;2.63;1.77;;;;;;;;;;5036157;28;20677;-74
2023/12/26 17:26:56;;;;;;;2.50;1.60;;;;;;;;;;5042881;28;20219;-74
2023/12/26 17:29:23;;;;;;;4.00;2.00;;;;;;;;;;5046797;28;20197;-73
2023/12/26 17:36:04;;;;;;;4.70;1.60;;;;;;;;;;5064817;28;20176;-72
2023/12/26 17:38:30;;;;;;;3.73;1.70;;;;;;;;;;5044996;28;20197;-72
2023/12/26 17:40:57;;;;;;;6.67;3.10;;;;;;;;;;5049906;28;20190;-73
2023/12/26 17:47:05;;;;;;;4.27;2.20;;;;;;;;;;5053526;28;20796;-73
2023/12/26 17:49:32;;;;;;;2.77;1.90;;;;;;;;;;5063389;28;20269;-76
2023/12/26 17:55:52;;;;;;;3.17;1.50;;;;;;;;;;5041481;28;20225;-72
2023/12/26 17:58:19;;;;;;;4.00;1.77;;;;;;;;;;5053853;28;20432;-72
2023/12/26 18:00:46;;;;;;;3.67;2.03;;;;;;;;;;5062987;28;20637;-73
2023/12/26 18:03:13;;;;;;;5.00;1.90;;;;;;;;;;5062376;28;20222;-73
2023/12/26 18:05:40;;;;;;;3.67;1.87;;;;;;;;;;5068436;28;20243;-73
2023/12/26 18:08:06;;;;;;;4.60;2.30;;;;;;;;;;5074143;28;20247;-73
2023/12/26 18:10:33;;;;;;;5.80;3.23;;;;;;;;;;5074107;28;20431;-73
2023/12/26 18:13:00;;;;;;;4.77;3.03;;;;;;;;;;5072501;28;20289;-73
2023/12/26 18:15:33;;;;;;;4.33;2.17;;;;;;;;;;5071791;28;20190;-73
2023/12/26 18:18:00;;;;;;;4.33;2.30;;;;;;;;;;5075603;28;20170;-73
2023/12/26 18:20:28;;;;;;;4.27;2.20;;;;;;;;;;5075545;28;20629;-73
2023/12/26 18:26:54;;;;;;;3.40;1.90;;;;;;;;;;5069442;28;20377;-75
2023/12/26 18:29:22;;;;;;;4.50;2.13;;;;;;;;;;5072984;28;20261;-73
2023/12/26 18:31:49;;;;;;;2.73;1.70;;;;;;;;;;5055791;28;20285;-68
2023/12/26 18:34:16;;;;;;;4.73;1.90;;;;;;;;;;5072732;28;20201;-71
2023/12/26 18:36:43;;;;;;;3.00;1.97;;;;;;;;;;5059772;28;20640;-76
2023/12/26 18:39:10;;;;;;;2.37;1.50;;;;;;;;;;5073431;28;20260;-71
2023/12/26 18:41:42;;;;;;;2.43;1.40;;;;;;;;;;5072217;28;20190;-73
2023/12/26 18:44:10;;;;;;;3.07;1.20;;;;;;;;;;5076604;28;20274;-73
2023/12/26 18:46:37;;;;;;;2.77;1.40;;;;;;;;;;5075393;28;20272;-72
2023/12/26 18:49:06;;;;;;;3.93;1.20;;;;;;;;;;5060185;28;20243;-78
2023/12/26 18:51:35;;;;;;;1.50;1.10;;;;;;;;;;5076812;28;20547;-77
2023/12/26 18:54:03;;;;;;;2.73;1.20;;;;;;;;;;5043559;28;20198;-78
2023/12/26 18:56:30;;;;;;;3.13;1.17;;;;;;;;;;5076276;28;20198;-75
2023/12/26 18:58:57;;;;;;;3.17;1.37;;;;;;;;;;5076873;28;20218;-75
2023/12/26 19:01:24;;;;;;;1.30;0.80;;;;;;;;;;5058420;28;21005;-74
2023/12/26 19:04:17;;;;;;;3.50;1.10;;;;;;;;;;5075551;28;20871;-73
2023/12/26 19:08:02;;;;;;;2.30;1.07;;;;;;;;;;5077458;28;20185;-72
2023/12/26 19:27:17;;;;;;;2.87;1.20;;;;;;;;;;4993379;28;20299;-69
2023/12/26 19:29:45;;;;;;;3.53;0.93;;;;;;;;;;5066259;28;20462;-69
2023/12/26 19:32:11;;;;;;;4.47;1.30;;;;;;;;;;5065552;28;20201;-75
2023/12/26 19:38:38;;;;;;;2.30;1.10;;;;;;;;;;5054516;28;20271;-72
2023/12/26 19:41:05;;;;;;;1.23;0.83;;;;;;;;;;5076819;28;20188;-72
2023/12/26 19:43:49;;;;;;;1.97;0.90;;;;;;;;;;5057373;28;20195;-72
2023/12/26 19:50:16;;;;;;;2.20;0.90;;;;;;;;;;5055715;28;20181;-72
2023/12/26 19:52:43;;;;;;;4.60;1.17;;;;;;;;;;5054761;28;20187;-72
2023/12/26 19:55:11;;;;;;;4.47;1.93;;;;;;;;;;5054621;28;20186;-73
2023/12/26 19:57:37;;;;;;;2.03;1.00;;;;;;;;;;5039255;28;20630;-73
2023/12/26 20:00:05;;;;;;;3.80;1.10;;;;;;;;;;5063109;28;20981;-73
2023/12/26 20:02:35;;;;;;;2.53;1.30;;;;;;;;;;5059261;28;20539;-73
2023/12/26 20:05:02;;;;;;;1.90;1.03;;;;;;;;;;5075205;28;20528;-73
2023/12/26 20:07:30;;;;;;;2.70;1.07;;;;;;;;;;5075967;28;20193;-73
2023/12/26 20:10:14;;;;;;;1.47;0.47;;;;;;;;;;5075586;28;20169;-72